createdAt,value
2019-01-06T00:02:17.139Z,13.43
2019-01-06T00:05:05.724Z,13.07
2019-01-06T00:07:53.896Z,10.43
2019-01-06T00:10:42.369Z,14.77
2019-01-06T00:13:30.809Z,11.50
2019-01-06T00:16:18.971Z,11.27
2019-01-06T00:19:07.415Z,11.03
2019-01-06T00:21:56.209Z,21.07
2019-01-06T00:24:44.664Z,15.53
2019-01-06T00:27:52.152Z,11.63
2019-01-06T00:30:40.598Z,13.63
2019-01-06T00:33:29.149Z,13.40
2019-01-06T00:39:11.510Z,11.53
2019-01-06T00:41:59.928Z,11.73
2019-01-06T00:44:43.468Z,11.83
2019-01-06T00:47:32.321Z,12.67
2019-01-06T00:50:20.779Z,13.43
2019-01-06T00:53:09.578Z,14.67
2019-01-06T00:55:58.029Z,11.63
2019-01-06T00:58:46.226Z,14.07
2019-01-06T01:01:33.731Z,14.37
2019-01-06T01:04:21.879Z,12.40
2019-01-06T01:07:11.190Z,12.40
2019-01-06T01:10:00.031Z,13.80
2019-01-06T01:12:49.263Z,16.60
2019-01-06T01:15:38.527Z,15.93
2019-01-06T01:18:27.087Z,14.07
2019-01-06T01:21:15.324Z,14.77
2019-01-06T01:24:03.755Z,17.43
2019-01-06T01:26:52.172Z,14.27
2019-01-06T01:29:40.601Z,11.73
2019-01-06T01:32:29.093Z,16.57
2019-01-06T01:35:17.875Z,10.43
2019-01-06T01:38:06.051Z,19.00
2019-01-06T01:40:54.502Z,13.07
2019-01-06T01:43:42.953Z,13.73
2019-01-06T01:46:31.158Z,12.80
2019-01-06T01:49:19.566Z,15.57
2019-01-06T01:52:08.385Z,19.63
2019-01-06T01:54:56.828Z,16.90
2019-01-06T01:57:45.264Z,18.27
2019-01-06T02:03:30.890Z,16.33
2019-01-06T02:06:19.025Z,17.73
2019-01-06T02:12:04.494Z,19.20
2019-01-06T02:20:35.575Z,14.13
2019-01-06T02:43:06.589Z,19.23
2019-01-06T02:59:57.521Z,22.67
2019-01-06T03:02:45.698Z,14.20
2019-01-06T03:05:33.839Z,24.50
2019-01-06T03:08:22.266Z,22.43
2019-01-06T03:11:08.124Z,22.57
2019-01-06T03:13:56.274Z,24.03
2019-01-06T03:16:44.424Z,25.13
2019-01-06T03:19:32.587Z,32.37
2019-01-06T03:22:20.721Z,24.33
2019-01-06T03:25:09.027Z,24.23
2019-01-06T03:27:49.453Z,22.00
2019-01-06T03:30:37.638Z,25.50
2019-01-06T03:33:26.057Z,22.17
2019-01-06T03:36:14.461Z,25.17
2019-01-06T03:39:02.620Z,24.33
2019-01-06T03:41:50.791Z,21.10
2019-01-06T03:44:38.982Z,23.43
2019-01-06T03:47:27.127Z,19.30
2019-01-06T03:50:15.305Z,14.23
2019-01-06T03:53:03.485Z,17.77
2019-01-06T03:55:51.720Z,22.30
2019-01-06T03:58:39.860Z,19.10
2019-01-06T04:01:28.033Z,19.27
2019-01-06T04:04:16.187Z,22.00
2019-01-06T04:07:04.318Z,19.43
2019-01-06T04:09:52.505Z,16.23
2019-01-06T04:12:40.661Z,19.27
2019-01-06T04:15:28.845Z,18.80
2019-01-06T04:18:16.968Z,19.07
2019-01-06T04:21:05.168Z,13.63
2019-01-06T04:23:53.586Z,15.70
2019-01-06T04:26:41.796Z,19.43
2019-01-06T04:29:29.951Z,21.37
2019-01-06T04:32:18.116Z,19.83
2019-01-06T04:35:06.258Z,12.67
2019-01-06T04:37:54.702Z,20.10
2019-01-06T04:40:42.823Z,18.60
2019-01-06T04:43:30.987Z,16.30
2019-01-06T04:46:19.172Z,18.33
2019-01-06T04:49:07.355Z,19.77
2019-01-06T04:51:55.805Z,20.23
2019-01-06T04:54:43.969Z,10.13
2019-01-06T04:57:32.132Z,19.97
2019-01-06T05:00:20.542Z,19.27
2019-01-06T05:03:08.696Z,19.60
2019-01-06T05:05:56.871Z,20.37
2019-01-06T05:08:45.030Z,15.87
2019-01-06T05:11:33.157Z,22.43
2019-01-06T05:14:21.329Z,17.40
2019-01-06T05:17:09.515Z,16.47
2019-01-06T05:19:57.696Z,18.03
2019-01-06T05:22:45.845Z,21.17
2019-01-06T05:25:34.311Z,22.60
2019-01-06T05:28:22.731Z,18.10
2019-01-06T05:31:10.909Z,28.67
2019-01-06T05:33:59.058Z,20.63
2019-01-06T05:36:47.218Z,24.70
2019-01-06T05:39:37.083Z,22.27
2019-01-06T05:42:25.280Z,19.30
2019-01-06T05:45:13.488Z,19.93
2019-01-06T05:48:01.622Z,17.83
2019-01-06T05:50:50.062Z,22.90
2019-01-06T05:53:38.236Z,21.67
2019-01-06T05:56:26.681Z,21.30
2019-01-06T05:59:14.829Z,22.90
2019-01-06T06:01:56.796Z,23.07
2019-01-06T06:04:44.954Z,20.17
2019-01-06T06:07:33.111Z,20.37
2019-01-06T06:10:21.233Z,25.30
2019-01-06T06:13:09.698Z,21.43
2019-01-06T06:15:57.834Z,23.33
2019-01-06T06:18:45.978Z,22.87
2019-01-06T06:21:34.532Z,22.67
2019-01-06T06:24:22.627Z,22.70
2019-01-06T06:27:10.787Z,24.53
2019-01-06T06:29:58.945Z,26.23
2019-01-06T06:32:47.115Z,22.07
2019-01-06T06:35:35.257Z,24.53
2019-01-06T06:38:23.705Z,22.77
2019-01-06T06:41:11.873Z,26.30
2019-01-06T06:44:00.067Z,25.57
2019-01-06T06:46:48.529Z,23.73
2019-01-06T06:49:36.705Z,27.47
2019-01-06T06:52:24.856Z,23.47
2019-01-06T06:55:13.109Z,24.47
2019-01-06T06:58:39.611Z,27.07
2019-01-06T07:01:49.485Z,27.13
2019-01-06T07:04:38.155Z,28.03
2019-01-06T07:07:26.294Z,30.73
2019-01-06T07:10:14.473Z,27.27
2019-01-06T07:13:02.916Z,22.97
2019-01-06T07:15:51.105Z,32.40
2019-01-06T07:18:43.807Z,23.10
2019-01-06T07:21:32.269Z,33.17
2019-01-06T07:24:20.802Z,31.23
2019-01-06T07:27:09.221Z,32.20
2019-01-06T07:29:57.470Z,29.90
2019-01-06T07:32:45.889Z,28.30
2019-01-06T07:35:34.054Z,29.83
2019-01-06T07:38:22.191Z,31.70
2019-01-06T07:41:10.363Z,30.10
2019-01-06T07:47:05.666Z,34.13
2019-01-06T07:49:53.818Z,30.97
2019-01-06T07:52:42.349Z,30.53
2019-01-06T07:55:30.495Z,21.43
2019-01-06T07:58:18.691Z,28.23
2019-01-06T08:01:06.834Z,31.33
2019-01-06T08:03:54.987Z,26.90
2019-01-06T08:06:43.192Z,30.93
2019-01-06T08:09:31.615Z,31.73
2019-01-06T08:12:20.126Z,36.03
2019-01-06T08:15:08.256Z,37.33
2019-01-06T08:17:56.421Z,33.17
2019-01-06T08:20:44.572Z,39.30
2019-01-06T08:23:32.726Z,35.50
2019-01-06T08:26:20.858Z,52.57
2019-01-06T08:29:09.038Z,49.30
2019-01-06T08:31:57.189Z,42.20
2019-01-06T08:34:45.383Z,45.50
2019-01-06T08:37:33.574Z,36.80
2019-01-06T08:40:21.707Z,33.47
2019-01-06T08:43:09.869Z,33.60
2019-01-06T08:45:58.009Z,34.23
2019-01-06T08:48:46.189Z,32.03
2019-01-06T08:51:34.332Z,41.57
2019-01-06T08:54:22.562Z,46.87
2019-01-06T08:57:10.677Z,35.83
2019-01-06T08:59:58.843Z,33.73
2019-01-06T09:02:47.064Z,34.10
2019-01-06T09:05:35.458Z,34.73
2019-01-06T09:08:23.656Z,34.50
2019-01-06T09:11:11.852Z,34.27
2019-01-06T09:13:58.192Z,40.77
2019-01-06T09:16:46.344Z,33.33
2019-01-06T09:27:47.006Z,35.87
2019-01-06T09:30:35.456Z,33.30
2019-01-06T09:33:23.654Z,28.73
2019-01-06T09:36:11.790Z,30.63
2019-01-06T09:38:59.937Z,37.37
2019-01-06T09:41:48.073Z,36.10
2019-01-06T09:44:36.223Z,34.93
2019-01-06T09:47:24.390Z,33.27
2019-01-06T09:50:06.360Z,29.10
2019-01-06T09:52:54.486Z,34.93
2019-01-06T09:55:42.639Z,33.67
2019-01-06T09:58:30.774Z,31.20
2019-01-06T10:01:19.205Z,32.77
2019-01-06T10:04:07.393Z,25.33
2019-01-06T10:06:55.522Z,35.93
2019-01-06T10:09:43.694Z,26.37
2019-01-06T10:12:31.926Z,25.97
2019-01-06T10:15:20.354Z,28.43
2019-01-06T10:18:08.486Z,24.23
2019-01-06T10:20:56.624Z,27.80
2019-01-06T10:23:40.124Z,25.23
2019-01-06T10:26:28.292Z,22.40
2019-01-06T10:29:16.428Z,30.10
2019-01-06T10:32:04.579Z,29.00
2019-01-06T10:37:47.619Z,19.13
2019-01-06T10:40:35.797Z,26.00
2019-01-06T10:43:23.963Z,24.33
2019-01-06T10:46:12.513Z,28.10
2019-01-06T10:49:00.711Z,24.27
2019-01-06T10:51:48.889Z,26.53
2019-01-06T10:54:37.041Z,23.43
2019-01-06T10:57:25.581Z,23.97
2019-01-06T11:00:13.957Z,21.63
2019-01-06T11:03:02.126Z,26.50
2019-01-06T11:05:50.315Z,19.87
2019-01-06T11:08:38.471Z,21.70
2019-01-06T11:11:26.631Z,25.57
2019-01-06T11:14:15.084Z,26.90
2019-01-06T11:17:03.534Z,26.07
2019-01-06T11:19:51.666Z,25.90
2019-01-06T11:22:39.855Z,23.87
2019-01-06T11:25:28.002Z,25.90
2019-01-06T11:28:11.554Z,28.17
2019-01-06T11:30:59.710Z,25.00
2019-01-06T11:33:47.850Z,26.23
2019-01-06T11:36:36.044Z,22.93
2019-01-06T11:39:44.738Z,23.13
2019-01-06T11:42:32.911Z,27.93
2019-01-06T11:45:21.065Z,24.60
2019-01-06T11:48:09.249Z,24.87
2019-01-06T11:50:57.961Z,20.13
2019-01-06T11:53:38.285Z,24.40
2019-01-06T11:56:26.457Z,18.67
2019-01-06T11:59:14.877Z,19.73
2019-01-06T12:02:03.113Z,20.77
2019-01-06T12:04:51.272Z,22.80
2019-01-06T12:07:39.450Z,17.33
2019-01-06T12:10:27.622Z,19.30
2019-01-06T12:13:16.376Z,20.63
2019-01-06T12:16:04.529Z,17.23
2019-01-06T12:18:52.676Z,20.20
2019-01-06T12:21:41.108Z,16.17
2019-01-06T12:24:29.552Z,17.93
2019-01-06T12:27:17.720Z,18.07
2019-01-06T12:30:05.858Z,18.87
2019-01-06T12:33:13.085Z,22.73
2019-01-06T12:36:01.559Z,18.97
2019-01-06T12:38:50.014Z,18.13
2019-01-06T12:41:38.518Z,20.70
2019-01-06T12:44:27.087Z,21.57
2019-01-06T12:47:15.589Z,17.13
2019-01-06T12:50:03.840Z,21.57
2019-01-06T12:52:52.083Z,19.30
2019-01-06T12:55:40.241Z,22.67
2019-01-06T12:58:28.402Z,19.33
2019-01-06T13:01:16.522Z,18.17
2019-01-06T13:04:04.958Z,23.80
2019-01-06T13:06:53.111Z,22.30
2019-01-06T13:09:41.261Z,20.63
2019-01-06T13:12:29.676Z,20.87
2019-01-06T13:15:17.844Z,13.17
2019-01-06T13:18:06.048Z,17.90
2019-01-06T13:24:01.314Z,16.77
2019-01-06T13:26:50.028Z,19.07
2019-01-06T13:29:38.164Z,15.10
2019-01-06T13:32:26.323Z,18.53
2019-01-06T13:35:14.523Z,17.17
2019-01-06T13:38:02.680Z,20.07
2019-01-06T13:40:50.900Z,19.97
2019-01-06T13:43:39.409Z,16.90
2019-01-06T13:46:27.983Z,20.23
2019-01-06T13:49:16.171Z,23.90
2019-01-06T13:52:04.578Z,23.03
2019-01-06T13:57:47.687Z,15.73
2019-01-06T14:00:35.857Z,19.67
2019-01-06T14:03:23.988Z,20.03
2019-01-06T14:06:07.266Z,18.33
2019-01-06T14:08:52.127Z,18.73
2019-01-06T14:11:40.272Z,16.30
2019-01-06T14:14:28.715Z,18.73
2019-01-06T14:17:17.134Z,16.53
2019-01-06T14:20:05.719Z,16.60
2019-01-06T14:22:53.871Z,18.60
2019-01-06T14:25:42.296Z,17.37
2019-01-06T14:28:30.423Z,15.60
2019-01-06T14:31:18.589Z,18.20
2019-01-06T14:34:06.807Z,17.47
2019-01-06T14:36:48.544Z,17.67
2019-01-06T14:39:36.697Z,17.97
2019-01-06T14:42:24.866Z,16.40
2019-01-06T14:45:13.049Z,20.67
2019-01-06T14:47:51.683Z,14.83
2019-01-06T14:50:39.835Z,14.87
2019-01-06T14:53:29.704Z,16.10
2019-01-06T14:56:17.860Z,17.93
2019-01-06T14:59:06.022Z,15.37
2019-01-06T15:01:54.217Z,14.67
2019-01-06T15:04:42.358Z,14.37
2019-01-06T15:07:30.528Z,14.60
2019-01-06T15:10:15.073Z,14.00
2019-01-06T15:13:03.548Z,16.43
2019-01-06T15:15:51.703Z,17.90
2019-01-06T15:18:39.819Z,17.80
2019-01-06T15:21:27.990Z,16.33
2019-01-06T15:24:16.138Z,14.70
2019-01-06T15:27:04.315Z,15.87
2019-01-06T15:29:52.444Z,18.13
2019-01-06T15:32:40.896Z,16.87
2019-01-06T15:35:29.656Z,16.50
2019-01-06T15:38:18.126Z,19.13
2019-01-06T15:41:06.282Z,23.23
2019-01-06T15:43:54.433Z,23.07
2019-01-06T15:46:42.856Z,24.97
2019-01-06T15:49:31.039Z,23.37
2019-01-06T15:52:19.192Z,18.77
2019-01-06T15:55:07.318Z,16.87
2019-01-06T15:57:55.498Z,21.20
2019-01-06T16:00:43.637Z,20.93
2019-01-06T16:03:31.785Z,23.83
2019-01-06T16:06:19.924Z,21.10
2019-01-06T16:09:08.089Z,22.13
2019-01-06T16:11:56.287Z,23.07
2019-01-06T16:14:44.423Z,21.43
2019-01-06T16:17:32.588Z,24.87
2019-01-06T16:20:20.737Z,26.90
2019-01-06T16:23:08.893Z,25.83
2019-01-06T16:25:49.608Z,21.97
2019-01-06T16:28:37.752Z,22.87
2019-01-06T16:31:25.874Z,21.53
2019-01-06T16:34:14.059Z,23.73
2019-01-06T16:40:09.410Z,23.17
2019-01-06T16:42:57.610Z,24.27
2019-01-06T16:45:45.731Z,24.77
2019-01-06T16:48:33.928Z,21.30
2019-01-06T16:51:22.085Z,22.00
2019-01-06T16:54:10.243Z,22.07
2019-01-06T16:56:58.367Z,22.03
2019-01-06T16:59:46.524Z,22.33
2019-01-06T17:02:34.650Z,21.30
2019-01-06T17:05:15.152Z,20.53
2019-01-06T17:08:03.323Z,20.07
2019-01-06T17:10:51.466Z,22.27
2019-01-06T17:13:39.942Z,19.40
2019-01-06T17:16:28.112Z,20.27
2019-01-06T17:19:16.562Z,21.63
2019-01-06T17:22:04.703Z,21.23
2019-01-06T17:24:52.860Z,24.93
2019-01-06T17:27:40.980Z,20.23
2019-01-06T17:30:29.409Z,21.93
2019-01-06T17:33:17.917Z,24.33
2019-01-06T17:36:25.315Z,25.93
2019-01-06T17:39:13.467Z,23.07
2019-01-06T17:42:01.598Z,25.83
2019-01-06T17:44:49.767Z,26.80
2019-01-06T17:47:31.574Z,24.03
2019-01-06T17:50:20.318Z,25.03
2019-01-06T17:53:08.459Z,26.40
2019-01-06T17:55:56.611Z,23.47
2019-01-06T17:58:44.744Z,23.93
2019-01-06T18:01:32.955Z,24.87
2019-01-06T18:04:29.849Z,28.60
2019-01-06T18:07:17.970Z,34.70
2019-01-06T18:10:06.124Z,39.00
2019-01-06T18:12:55.066Z,29.83
2019-01-06T18:15:43.596Z,25.23
2019-01-06T18:18:32.002Z,30.67
2019-01-06T18:21:20.496Z,29.20
2019-01-06T18:24:08.670Z,28.93
2019-01-06T18:26:56.851Z,25.53
2019-01-06T18:41:31.359Z,28.33
2019-01-06T18:44:40.100Z,28.10
2019-01-06T18:47:28.497Z,28.47
2019-01-06T18:50:16.683Z,30.10
2019-01-06T18:53:04.827Z,28.13
2019-01-06T18:55:53.003Z,28.27
2019-01-06T18:58:41.423Z,32.13
2019-01-06T19:01:29.573Z,28.13
2019-01-06T19:04:17.709Z,32.27
2019-01-06T19:07:06.181Z,33.17
2019-01-06T19:09:54.328Z,33.53
2019-01-06T19:13:02.710Z,35.73
2019-01-06T19:15:46.230Z,31.23
2019-01-06T19:18:34.440Z,35.97
2019-01-06T19:21:22.956Z,32.53
2019-01-06T19:24:11.073Z,33.80
2019-01-06T19:26:59.552Z,37.90
2019-01-06T19:29:47.967Z,36.00
2019-01-06T19:32:34.355Z,41.70
2019-01-06T19:35:24.562Z,40.87
2019-01-06T19:38:13.040Z,33.60
2019-01-06T19:41:01.208Z,37.13
2019-01-06T19:43:49.358Z,41.57
2019-01-06T19:46:37.764Z,35.53
2019-01-06T19:49:26.203Z,36.63
2019-01-06T19:52:33.640Z,39.17
2019-01-06T19:55:21.781Z,37.47
2019-01-06T19:58:10.233Z,37.63
2019-01-06T20:00:58.346Z,40.30
2019-01-06T20:04:07.066Z,41.13
2019-01-06T20:06:55.214Z,43.23
2019-01-06T20:09:43.350Z,39.57
2019-01-06T20:12:50.589Z,43.20
2019-01-06T20:15:38.719Z,41.80
2019-01-06T20:18:20.064Z,40.63
2019-01-06T20:21:08.888Z,44.40
2019-01-06T20:23:57.050Z,36.50
2019-01-06T20:26:45.588Z,38.73
2019-01-06T20:29:34.282Z,38.43
2019-01-06T20:32:23.092Z,36.87
2019-01-06T20:35:11.223Z,37.70
2019-01-06T20:37:53.765Z,35.13
2019-01-06T20:41:00.988Z,35.93
2019-01-06T20:43:49.611Z,34.47
2019-01-06T20:46:56.925Z,32.10
2019-01-06T20:49:45.082Z,32.60
2019-01-06T20:52:41.349Z,37.03
2019-01-06T20:55:23.891Z,36.03
2019-01-06T20:58:31.604Z,32.93
2019-01-06T21:01:19.744Z,36.17
2019-01-06T21:04:08.300Z,34.13
2019-01-06T21:06:56.852Z,36.10
2019-01-06T21:09:45.019Z,35.97
2019-01-06T21:12:33.212Z,38.03
2019-01-06T21:15:21.606Z,39.60
2019-01-06T21:18:09.768Z,37.93
2019-01-06T21:20:58.165Z,38.73
2019-01-06T21:23:46.656Z,37.50
2019-01-06T21:26:34.816Z,34.23
2019-01-06T21:29:23.021Z,33.50
2019-01-06T21:32:11.707Z,39.77
2019-01-06T21:34:52.875Z,42.93
2019-01-06T21:37:38.187Z,39.40
2019-01-06T21:40:26.859Z,38.40
2019-01-06T21:43:15.264Z,38.47
2019-01-06T21:46:03.465Z,33.83
2019-01-06T21:48:54.123Z,38.37
2019-01-06T21:52:01.620Z,37.30
2019-01-06T21:54:49.882Z,42.93
2019-01-06T21:57:38.364Z,38.63
2019-01-06T22:00:27.351Z,41.07
2019-01-06T22:09:02.455Z,38.10
2019-01-06T22:11:50.636Z,45.83
2019-01-06T22:14:38.810Z,42.73
2019-01-06T22:17:27.465Z,46.10
2019-01-06T22:20:34.669Z,41.70
2019-01-06T22:23:22.919Z,41.77
2019-01-06T22:26:11.082Z,46.50
2019-01-06T22:28:59.216Z,45.20
2019-01-06T22:31:47.388Z,44.80
2019-01-06T22:34:35.513Z,47.63
2019-01-06T22:37:23.697Z,44.17
2019-01-06T22:40:11.843Z,42.77
2019-01-06T22:43:00.031Z,47.60
2019-01-06T22:45:48.257Z,44.87
2019-01-06T22:48:36.467Z,44.17
2019-01-06T22:51:24.956Z,45.13
2019-01-06T22:54:13.085Z,44.50
2019-01-06T22:57:01.501Z,45.93
2019-01-06T22:59:49.931Z,49.57
2019-01-06T23:02:38.349Z,46.63
2019-01-06T23:05:27.126Z,49.80
2019-01-06T23:08:15.579Z,44.70
2019-01-06T23:11:03.748Z,49.80
2019-01-06T23:13:51.892Z,46.10
2019-01-06T23:16:41.466Z,44.67
2019-01-06T23:19:29.890Z,46.00
2019-01-06T23:22:18.316Z,46.17
2019-01-06T23:25:06.496Z,45.57
2019-01-06T23:27:54.676Z,44.77
2019-01-06T23:30:45.099Z,49.67
2019-01-06T23:33:33.622Z,40.43
2019-01-06T23:36:21.866Z,45.40
2019-01-06T23:39:10.005Z,46.67
2019-01-06T23:41:58.150Z,46.37
2019-01-06T23:44:46.759Z,49.10
2019-01-06T23:47:34.883Z,48.77
2019-01-06T23:50:23.120Z,49.57
2019-01-06T23:53:11.284Z,49.37
2019-01-06T23:55:59.443Z,56.70
2019-01-06T23:58:37.326Z,49.47
